Time;durP1;ratioP1;P1;durP2;ratioP2;P2;SDS_P1;SDS_P2;PMS_P1;PMS_P2;Temp;Humidity;BMP_temperature;BMP_pressure;BME280_temperature;BME280_humidity;BME280_pressure;Samples;Min_cycle;Max_cycle;Signal;HPM_P1;HPM_P2
2021/12/15 00:01:59;;;;;;;1999.90;999.90;;;;;;;10.65;80.15;102331.56;15765613;28;20517;-58
2021/12/15 00:09:34;;;;;;;1999.90;999.90;;;;;;;10.67;80.18;102332.09;15743891;28;20131;-59
2021/12/15 00:17:07;;;;;;;1999.90;999.90;;;;;;;10.57;80.31;102323.00;15791108;28;20054;-59
2021/12/15 00:24:42;;;;;;;1999.90;999.90;;;;;;;10.68;80.27;102330.97;15783427;28;20558;-59
2021/12/15 00:32:15;;;;;;;1999.90;999.90;;;;;;;10.51;80.46;102327.78;15765392;28;20127;-60
2021/12/15 00:39:49;;;;;;;1999.90;999.90;;;;;;;10.62;80.54;102331.31;15803570;28;20126;-59
2021/12/15 00:47:23;;;;;;;1999.90;999.90;;;;;;;10.52;80.99;102331.41;15745557;28;20488;-58
2021/12/15 00:54:58;;;;;;;1999.90;999.90;;;;;;;10.50;80.80;102333.66;15728298;28;20048;-60
2021/12/15 01:02:33;;;;;;;1999.90;999.90;;;;;;;10.76;80.28;102334.25;15759826;28;20345;-59
2021/12/15 01:10:09;;;;;;;1999.90;999.90;;;;;;;10.63;80.74;102349.75;15767336;28;20481;-58
2021/12/15 01:25:41;;;;;;;1999.90;999.90;;;;;;;10.53;81.08;102361.84;15761865;28;20067;-57
2021/12/15 01:33:14;;;;;;;1999.90;999.90;;;;;;;10.44;81.59;102373.94;15761118;28;20244;-53
2021/12/15 01:40:49;;;;;;;1999.90;999.90;;;;;;;10.55;80.88;102376.34;15778120;28;20071;-54
2021/12/15 01:48:23;;;;;;;1999.90;999.90;;;;;;;10.54;81.24;102359.88;15758958;28;20043;-54
2021/12/15 01:55:57;;;;;;;1999.90;999.90;;;;;;;10.70;80.32;102356.63;15754220;28;20451;-52
2021/12/15 02:03:30;;;;;;;1999.90;999.90;;;;;;;10.72;80.49;102356.34;15760480;28;20051;-53
2021/12/15 02:11:05;;;;;;;1999.90;999.90;;;;;;;10.61;80.93;102363.13;15722600;28;20058;-52
2021/12/15 02:18:42;;;;;;;1999.90;999.90;;;;;;;10.78;80.17;102357.97;15774251;28;20044;-52
2021/12/15 02:26:21;;;;;;;1999.90;999.90;;;;;;;10.83;79.49;102346.72;15723969;28;20049;-56
2021/12/15 02:34:04;;;;;;;1999.90;999.90;;;;;;;10.70;80.01;102350.22;15760068;28;20044;-55
2021/12/15 02:41:40;;;;;;;1999.90;999.90;;;;;;;10.70;79.59;102350.22;15748579;28;20072;-55
2021/12/15 02:49:15;;;;;;;1999.90;999.90;;;;;;;10.81;78.91;102357.34;15753017;28;20039;-52
2021/12/15 02:56:52;;;;;;;1999.90;999.90;;;;;;;10.74;79.82;102359.69;15744727;28;20040;-55
2021/12/15 03:04:36;;;;;;;1999.90;999.90;;;;;;;10.72;79.58;102363.88;15757791;28;20045;-58
2021/12/15 03:20:18;;;;;;;1999.90;999.90;;;;;;;10.66;79.85;102369.53;15584498;28;20519;-53
2021/12/15 03:35:47;;;;;;;1999.90;999.90;;;;;;;10.63;79.59;102360.91;15738954;28;20139;-55
2021/12/15 03:43:22;;;;;;;1999.90;999.90;;;;;;;10.67;79.88;102350.81;15752108;28;20048;-60
2021/12/15 03:50:56;;;;;;;1999.90;999.90;;;;;;;10.56;79.96;102350.06;15764030;28;20109;-56
2021/12/15 03:58:30;;;;;;;1999.90;999.90;;;;;;;10.45;80.41;102339.31;15753647;28;20105;-55
2021/12/15 04:06:07;;;;;;;1999.90;999.90;;;;;;;10.49;80.57;102351.53;15777049;28;20056;-56
2021/12/15 04:13:45;;;;;;;1999.90;999.90;;;;;;;10.54;80.39;102351.50;15776096;28;20461;-58
2021/12/15 04:21:18;;;;;;;1999.90;999.90;;;;;;;10.55;80.23;102359.59;15784972;28;20062;-53
2021/12/15 04:28:54;;;;;;;1999.90;999.90;;;;;;;10.28;81.10;102354.50;15771040;28;20048;-57
2021/12/15 04:36:31;;;;;;;1999.90;999.90;;;;;;;10.24;81.19;102349.81;15812151;22;20048;-64
2021/12/15 04:44:10;;;;;;;1999.90;999.90;;;;;;;10.07;81.86;102358.53;15789390;28;20041;-65
2021/12/15 04:51:43;;;;;;;1999.90;999.90;;;;;;;10.44;80.92;102359.97;15765641;28;20050;-65
2021/12/15 04:59:17;;;;;;;1999.90;999.90;;;;;;;10.46;80.67;102377.25;15768386;28;20044;-63
2021/12/15 05:06:51;;;;;;;1999.90;999.90;;;;;;;10.42;80.66;102385.38;15798789;28;20040;-62
2021/12/15 05:14:26;;;;;;;1999.90;999.90;;;;;;;10.46;80.22;102392.03;15767140;28;20046;-63
2021/12/15 05:21:59;;;;;;;1999.90;999.90;;;;;;;10.47;79.92;102407.66;15787705;28;20055;-63
2021/12/15 05:29:38;;;;;;;1999.90;999.90;;;;;;;10.59;79.55;102404.47;15783412;28;20045;-62
2021/12/15 05:37:11;;;;;;;1999.90;999.90;;;;;;;10.41;80.22;102408.81;15776531;28;20040;-64
2021/12/15 05:44:52;;;;;;;1999.90;999.90;;;;;;;10.32;80.38;102408.63;15757783;28;20110;-65
2021/12/15 05:52:29;;;;;;;1999.90;999.90;;;;;;;10.32;80.44;102411.41;15765498;28;20048;-64
2021/12/15 06:00:12;;;;;;;1999.90;999.90;;;;;;;10.45;79.77;102409.91;15751714;28;20044;-63
2021/12/15 06:07:50;;;;;;;1999.90;999.90;;;;;;;10.49;79.70;102415.72;15765417;28;20040;-62
2021/12/15 06:15:38;;;;;;;1999.90;999.90;;;;;;;10.40;80.13;102415.50;15768455;28;20128;-64
2021/12/15 06:23:17;;;;;;;1999.90;999.90;;;;;;;10.45;79.98;102420.25;15778973;28;20120;-64
2021/12/15 06:30:51;;;;;;;1999.90;999.90;;;;;;;10.47;80.09;102415.19;15761984;28;20113;-64
2021/12/15 06:38:27;;;;;;;1999.90;999.90;;;;;;;10.46;79.76;102419.13;15743021;28;20045;-62
2021/12/15 06:46:29;;;;;;;1999.90;999.90;;;;;;;10.42;79.84;102413.28;15742628;28;20420;-63
2021/12/15 07:02:04;;;;;;;1999.90;999.90;;;;;;;10.48;79.62;102439.19;15722818;28;20064;-63
2021/12/15 07:09:39;;;;;;;1999.90;999.90;;;;;;;10.60;79.31;102431.28;15741770;28;20045;-63
2021/12/15 07:17:35;;;;;;;1999.90;999.90;;;;;;;10.56;79.38;102445.00;15739919;28;20044;-64
2021/12/15 07:25:10;;;;;;;1999.90;999.90;;;;;;;10.47;79.86;102457.06;15740576;28;20052;-64
2021/12/15 07:32:49;;;;;;;1999.90;999.90;;;;;;;10.51;79.83;102458.97;15740309;28;20040;-61
2021/12/15 07:40:25;;;;;;;1999.90;999.90;;;;;;;10.54;79.51;102461.19;15722172;28;20072;-64
2021/12/15 07:48:02;;;;;;;1999.90;999.90;;;;;;;10.81;78.92;102468.22;15738735;28;20068;-64
2021/12/15 07:55:36;;;;;;;1999.90;999.90;;;;;;;10.64;78.73;102468.66;15740037;28;20291;-63
2021/12/15 08:03:12;;;;;;;1999.90;999.90;;;;;;;10.81;78.79;102463.47;15737838;28;20053;-63
2021/12/15 08:10:53;;;;;;;1999.90;999.90;;;;;;;10.80;78.88;102472.16;15737482;28;20041;-63
2021/12/15 08:18:31;;;;;;;1999.90;999.90;;;;;;;10.78;78.91;102458.50;15720611;28;20106;-63
2021/12/15 08:26:05;;;;;;;1999.90;999.90;;;;;;;10.80;78.86;102470.19;15738096;28;20080;-64
2021/12/15 08:33:40;;;;;;;1999.90;999.90;;;;;;;10.75;78.83;102475.84;15744150;28;20037;-63
2021/12/15 08:41:20;;;;;;;1999.90;999.90;;;;;;;10.98;78.99;102491.00;15749352;28;20044;-64
2021/12/15 08:48:56;;;;;;;1999.90;999.90;;;;;;;10.93;79.13;102496.59;15748379;28;20040;-63
2021/12/15 08:56:36;;;;;;;1999.90;999.90;;;;;;;11.18;77.91;102492.78;15748614;28;20049;-63
2021/12/15 09:04:11;;;;;;;1999.90;999.90;;;;;;;11.37;77.62;102501.25;15748676;28;20048;-64
2021/12/15 09:12:14;;;;;;;1999.90;999.90;;;;;;;11.16;78.06;102501.44;15759319;28;20090;-63
2021/12/15 09:19:53;;;;;;;1999.90;999.90;;;;;;;11.41;77.94;102493.94;15757164;28;20044;-64
2021/12/15 09:27:36;;;;;;;1999.90;999.90;;;;;;;11.35;78.24;102497.91;15753868;28;20052;-63
2021/12/15 09:35:13;;;;;;;1999.90;999.90;;;;;;;11.38;77.88;102492.56;15732165;28;20536;-64
2021/12/15 09:42:47;;;;;;;1999.90;999.90;;;;;;;11.31;78.10;102492.06;15745203;28;20442;-64
2021/12/15 10:06:46;;;;;;;1999.90;999.90;;;;;;;11.85;76.51;102485.34;15744895;28;20040;-64
2021/12/15 10:22:39;;;;;;;1999.90;999.90;;;;;;;12.02;76.25;102482.88;15742714;28;20527;-63
2021/12/15 10:30:22;;;;;;;1999.90;999.90;;;;;;;12.05;76.23;102475.84;15743388;28;20283;-63
2021/12/15 10:38:30;;;;;;;1999.90;999.90;;;;;;;11.90;76.59;102474.09;15742686;28;20094;-63
2021/12/15 10:46:07;;;;;;;1999.90;999.90;;;;;;;11.73;77.42;102479.31;15666825;28;20048;-64
2021/12/15 10:53:42;;;;;;;1999.90;999.90;;;;;;;11.81;76.99;102476.72;15741112;28;20051;-64
2021/12/15 11:01:53;;;;;;;1999.90;999.90;;;;;;;11.64;77.67;102479.13;15740151;28;20079;-64
2021/12/15 11:09:36;;;;;;;1999.90;999.90;;;;;;;11.83;77.54;102482.84;15723465;28;20408;-64
2021/12/15 11:17:19;;;;;;;1999.90;999.90;;;;;;;11.89;77.30;102478.03;15730514;28;20102;-64
2021/12/15 11:24:53;;;;;;;1999.90;999.90;;;;;;;12.06;77.04;102477.50;15740194;28;20044;-63
2021/12/15 11:32:47;;;;;;;1999.90;999.90;;;;;;;12.30;76.30;102464.31;15740302;28;20079;-63
2021/12/15 11:40:42;;;;;;;1999.90;999.90;;;;;;;12.97;73.90;102472.47;15738709;28;20045;-62
2021/12/15 11:48:22;;;;;;;1999.90;999.90;;;;;;;13.40;71.33;102453.47;15722000;28;20135;-62
2021/12/15 11:56:11;;;;;;;1999.90;999.90;;;;;;;12.88;73.19;102465.88;15659484;28;20604;-63
2021/12/15 12:04:12;;;;;;;1999.90;999.90;;;;;;;12.73;74.11;102452.16;15659612;28;20402;-64
2021/12/15 12:11:52;;;;;;;1999.90;999.90;;;;;;;12.76;74.21;102446.75;15689123;28;20071;-63
2021/12/15 12:19:25;;;;;;;1999.90;999.90;;;;;;;12.83;73.36;102436.00;15689706;28;20056;-64
2021/12/15 12:27:00;;;;;;;1999.90;999.90;;;;;;;12.56;74.80;102433.09;15725639;28;20032;-64
2021/12/15 12:34:33;;;;;;;1999.90;999.90;;;;;;;12.92;73.87;102427.69;15748724;28;20044;-64
2021/12/15 12:42:08;;;;;;;1999.90;999.90;;;;;;;12.64;74.83;102438.00;15748231;28;20071;-63
2021/12/15 12:59:22;;;;;;;1999.90;999.90;;;;;;;12.66;74.72;102447.75;15743215;28;20049;-64
2021/12/15 13:05:59;;;;;;;1999.90;999.90;;;;;;;12.59;74.86;102450.13;15749235;28;20086;-64
2021/12/15 13:13:44;;;;;;;1999.90;999.90;;;;;;;12.61;74.58;102455.41;15747718;28;20040;-63
2021/12/15 13:21:23;;;;;;;1999.90;999.90;;;;;;;12.44;74.86;102455.97;15747602;28;20386;-64
2021/12/15 13:29:23;;;;;;;1999.90;999.90;;;;;;;12.37;75.77;102456.34;15739423;28;20048;-62
2021/12/15 13:36:57;;;;;;;1999.90;999.90;;;;;;;12.49;75.19;102463.44;15755433;28;20041;-62
2021/12/15 13:44:35;;;;;;;1999.90;999.90;;;;;;;12.45;75.52;102456.81;15740719;28;20053;-63
2021/12/15 13:52:30;;;;;;;1999.90;999.90;;;;;;;12.61;75.07;102459.06;15773475;28;20049;-63
2021/12/15 14:00:16;;;;;;;1999.90;999.90;;;;;;;12.53;74.67;102462.56;15746184;28;20037;-62
2021/12/15 14:07:50;;;;;;;1999.90;999.90;;;;;;;12.39;75.06;102453.22;15744028;28;20036;-64
2021/12/15 14:15:49;;;;;;;1999.90;999.90;;;;;;;12.39;75.35;102467.22;15721689;28;20295;-63
2021/12/15 14:23:26;;;;;;;1999.90;999.90;;;;;;;12.02;76.22;102459.66;15690280;28;20051;-63
2021/12/15 14:31:07;;;;;;;1999.90;999.90;;;;;;;12.24;76.14;102465.50;15741959;28;20044;-64
2021/12/15 14:38:47;;;;;;;1999.90;999.90;;;;;;;12.14;76.23;102469.28;15739271;28;20106;-64
2021/12/15 14:46:25;;;;;;;1999.90;999.90;;;;;;;12.09;76.15;102480.56;15738678;28;20507;-63
2021/12/15 14:54:02;;;;;;;1999.90;999.90;;;;;;;12.22;75.63;102478.97;15739442;28;20072;-62
2021/12/15 15:01:36;;;;;;;1999.90;999.90;;;;;;;12.22;75.08;102480.94;15739908;28;20064;-63
2021/12/15 15:09:20;;;;;;;1999.90;999.90;;;;;;;12.07;75.67;102460.41;15738488;28;20044;-64
2021/12/15 15:16:54;;;;;;;1999.90;999.90;;;;;;;11.89;76.27;102482.78;15737015;28;20140;-63
2021/12/15 15:32:37;;;;;;;1999.90;999.90;;;;;;;12.24;75.32;102489.88;15703049;28;1022882;-64
2021/12/15 15:40:32;;;;;;;1999.90;999.90;;;;;;;11.74;76.93;102483.75;15737782;28;20127;-63
2021/12/15 15:48:15;;;;;;;1999.90;999.90;;;;;;;12.02;76.15;102491.28;15739237;28;20066;-63
2021/12/15 15:56:29;;;;;;;1999.90;999.90;;;;;;;12.14;75.68;102488.88;15740133;28;20040;-64
2021/12/15 16:04:05;;;;;;;1999.90;999.90;;;;;;;12.23;75.44;102499.41;15746798;28;20041;-63
2021/12/15 16:11:41;;;;;;;1999.90;999.90;;;;;;;12.11;75.63;102502.63;15733818;28;20060;-64
2021/12/15 16:19:27;;;;;;;1999.90;999.90;;;;;;;12.13;75.47;102515.19;15739148;28;20075;-63
2021/12/15 16:27:00;;;;;;;1999.90;999.90;;;;;;;12.11;75.21;102514.66;15739256;28;20052;-63
2021/12/15 16:34:37;;;;;;;1999.90;999.90;;;;;;;12.29;74.85;102523.38;15820918;22;20055;-57
2021/12/15 16:42:13;;;;;;;1999.90;999.90;;;;;;;12.07;75.33;102530.38;15859144;28;20139;-57
2021/12/15 16:49:49;;;;;;;1999.90;999.90;;;;;;;12.11;75.50;102525.84;15859486;28;20051;-59
2021/12/15 16:57:46;;;;;;;1999.90;999.90;;;;;;;12.22;75.27;102526.56;15852727;28;20044;-53
2021/12/15 17:05:29;;;;;;;1999.90;999.90;;;;;;;12.05;75.69;102538.22;15852125;28;20491;-58
2021/12/15 17:13:11;;;;;;;1999.90;999.90;;;;;;;12.07;75.48;102535.97;15870219;28;20169;-60
2021/12/15 17:21:04;;;;;;;;;;;;;;;;;;;;;
2021/12/15 17:28:44;;;;;;;1999.90;999.90;;;;;;;11.98;75.86;102534.13;15782141;28;20163;-60
2021/12/15 17:36:35;;;;;;;1999.90;999.90;;;;;;;11.85;76.47;102544.06;15787000;28;20150;-59
2021/12/15 17:44:15;;;;;;;;;;;;;;;12.11;75.38;102545.44;15786778;28;20055;-58
2021/12/15 17:52:17;;;;;;;1999.90;999.90;;;;;;;12.03;75.62;102556.47;15803759;28;19926;-57
2021/12/15 17:59:52;;;;;;;1999.90;999.90;;;;;;;11.99;75.54;102570.22;15820556;28;20071;-58
2021/12/15 18:07:52;;;;;;;1999.90;999.90;;;;;;;12.14;74.91;102569.19;15847685;28;20028;-58
2021/12/15 18:15:45;;;;;;;1999.90;999.90;;;;;;;12.09;74.96;102578.50;15866093;28;20442;-57
2021/12/15 18:23:21;;;;;;;1999.90;999.90;;;;;;;12.06;74.79;102570.69;15827126;28;20248;-57
2021/12/15 18:30:58;;;;;;;1999.90;999.90;;;;;;;12.02;74.45;102579.97;15784365;28;20044;-57
2021/12/15 18:38:32;;;;;;;1999.90;999.90;;;;;;;12.11;74.02;102569.81;15797416;28;20473;-60
2021/12/15 18:46:15;;;;;;;1999.90;999.90;;;;;;;12.04;74.33;102578.53;15836942;28;20480;-57
2021/12/15 18:53:57;;;;;;;1999.90;999.90;;;;;;;12.00;74.55;102565.47;15815576;27;20504;-57
2021/12/15 19:01:35;;;;;;;1999.90;999.90;;;;;;;11.95;74.87;102571.09;15822393;28;20054;-57
2021/12/15 19:09:21;;;;;;;1999.90;999.90;;;;;;;12.04;74.07;102575.75;15841429;28;20568;-57
2021/12/15 19:16:57;;;;;;;1999.90;999.90;;;;;;;12.03;74.64;102573.25;15797413;28;20071;-57
2021/12/15 19:24:31;;;;;;;1999.90;999.90;;;;;;;11.75;75.69;102575.75;15830059;28;20063;-59
2021/12/15 19:32:05;;;;;;;1999.90;999.90;;;;;;;11.73;75.65;102563.22;15814694;28;20056;-57
2021/12/15 19:39:39;;;;;;;1999.90;999.90;;;;;;;11.55;76.59;102574.00;15809482;28;20039;-58
2021/12/15 19:47:14;;;;;;;1999.90;999.90;;;;;;;11.44;76.86;102563.22;15811921;28;20502;-57
2021/12/15 19:54:48;;;;;;;1999.90;999.90;;;;;;;11.64;76.11;102567.78;15823206;28;20442;-58
2021/12/15 20:02:22;;;;;;;1999.90;999.90;;;;;;;11.53;76.50;102564.25;15802981;28;20377;-57
2021/12/15 20:09:56;;;;;;;;;;;;;;;11.74;75.70;102573.25;15817226;28;20074;-53
2021/12/15 20:17:30;;;;;;;1999.90;999.90;;;;;;;11.61;76.33;102562.78;15806008;28;20297;-55
2021/12/15 20:25:04;;;;;;;;;;;;;;;11.80;75.42;102574.91;15819469;28;20036;-59
2021/12/15 20:32:39;;;;;;;1999.90;999.90;;;;;;;11.56;76.04;102566.44;15844504;28;20386;-58
2021/12/15 20:40:17;;;;;;;1999.90;999.90;;;;;;;11.76;75.51;102580.22;15825279;28;20044;-56
2021/12/15 20:47:51;;;;;;;1999.90;999.90;;;;;;;11.77;75.34;102576.28;15847063;28;20063;-56
2021/12/15 20:55:26;;;;;;;1999.90;999.90;;;;;;;11.82;75.22;102581.03;15842091;28;20074;-58
2021/12/15 21:03:01;;;;;;;1999.90;999.90;;;;;;;11.84;74.87;102579.59;15829227;28;20044;-57
2021/12/15 21:10:43;;;;;;;1999.90;999.90;;;;;;;11.71;75.11;102580.28;15854897;28;20040;-59
2021/12/15 21:18:16;;;;;;;1999.90;999.90;;;;;;;11.55;75.33;102575.97;15845978;28;20040;-55
2021/12/15 21:25:55;;;;;;;1999.90;999.90;;;;;;;11.49;75.31;102582.75;15820905;28;20501;-57
2021/12/15 21:33:27;;;;;;;1999.90;999.90;;;;;;;11.18;75.39;102577.44;15830780;28;20039;-56
2021/12/15 21:41:05;;;;;;;1999.90;999.90;;;;;;;11.15;75.81;102582.75;15826251;28;20039;-57
2021/12/15 21:48:39;;;;;;;1999.90;999.90;;;;;;;11.03;75.31;102574.75;15794787;28;20076;-58
2021/12/15 21:56:14;;;;;;;1999.90;999.90;;;;;;;10.86;76.18;102560.38;15806990;28;20035;-59
2021/12/15 22:03:49;;;;;;;1999.90;999.90;;;;;;;10.82;76.80;102564.84;15821725;28;20050;-60
2021/12/15 22:11:25;;;;;;;1999.90;999.90;;;;;;;10.86;77.04;102571.53;15865909;28;20154;-60
2021/12/15 22:19:01;;;;;;;1999.90;999.90;;;;;;;10.97;76.99;102570.34;15840833;28;20039;-60
2021/12/15 22:26:41;;;;;;;1999.90;999.90;;;;;;;10.94;77.29;102568.97;15815015;28;20040;-60
2021/12/15 22:34:18;;;;;;;1999.90;999.90;;;;;;;11.02;76.99;102569.44;15864742;28;20500;-57
2021/12/15 22:42:01;;;;;;;1999.90;999.90;;;;;;;11.13;76.47;102569.06;15853311;28;20088;-56
2021/12/15 22:49:51;;;;;;;1999.90;999.90;;;;;;;11.10;76.52;102560.47;15858359;28;20066;-58
2021/12/15 22:57:36;;;;;;;1999.90;999.90;;;;;;;11.10;76.43;102560.47;15864293;28;20047;-57
2021/12/15 23:05:17;;;;;;;1999.90;999.90;;;;;;;11.16;76.25;102553.72;15825668;28;20461;-60
2021/12/15 23:13:00;;;;;;;1999.90;999.90;;;;;;;11.04;76.40;102544.84;15862655;28;20202;-58
2021/12/15 23:20:37;;;;;;;1999.90;999.90;;;;;;;10.97;76.34;102548.00;15863356;28;20503;-56
2021/12/15 23:28:46;;;;;;;1999.90;999.90;;;;;;;11.10;76.23;102561.28;15861109;28;20579;-55
2021/12/15 23:36:30;;;;;;;1999.90;999.90;;;;;;;11.07;75.98;102566.63;15804355;28;20050;-59
